createdAt,value
2024-05-09T00:00:29.905Z,83.81
2024-05-09T00:01:23.147Z,83.91
2024-05-09T00:02:21.160Z,83.81
2024-05-09T00:03:21.094Z,83.70
2024-05-09T00:04:21.088Z,83.56
2024-05-09T00:05:21.111Z,83.50
2024-05-09T00:06:21.043Z,83.60
2024-05-09T00:07:21.034Z,83.60
2024-05-09T00:08:21.027Z,83.56
2024-05-09T00:09:21.006Z,83.50
2024-05-09T00:10:25.609Z,84.01
2024-05-09T00:11:23.211Z,84.01
2024-05-09T00:12:21.186Z,83.91
2024-05-09T00:13:21.042Z,84.15
2024-05-09T00:14:20.991Z,84.11
2024-05-09T00:15:21.060Z,84.05
2024-05-09T00:16:20.942Z,84.97
2024-05-09T00:17:21.014Z,85.07
2024-05-09T00:18:21.139Z,84.25
2024-05-09T00:19:21.100Z,84.15
2024-05-09T00:20:28.066Z,83.95
2024-05-09T00:21:21.864Z,84.15
2024-05-09T00:22:20.935Z,83.74
2024-05-09T00:23:20.953Z,83.64
2024-05-09T00:24:20.872Z,83.33
2024-05-09T00:25:20.831Z,83.74
2024-05-09T00:26:20.903Z,84.15
2024-05-09T00:27:20.951Z,83.64
2024-05-09T00:28:20.909Z,83.33
2024-05-09T00:29:21.083Z,83.74
2024-05-09T00:30:27.814Z,83.74
2024-05-09T00:31:22.791Z,84.36
2024-05-09T00:32:21.059Z,84.56
2024-05-09T00:33:21.067Z,84.46
2024-05-09T00:34:20.822Z,84.25
2024-05-09T00:35:20.763Z,84.15
2024-05-09T00:36:20.733Z,84.09
2024-05-09T00:37:20.672Z,84.19
2024-05-09T00:38:20.747Z,84.95
2024-05-09T00:39:20.719Z,86.01
2024-05-09T00:40:30.770Z,86.42
2024-05-09T00:41:22.670Z,87.59
2024-05-09T00:42:20.646Z,87.59
2024-05-09T00:43:20.614Z,88.08
2024-05-09T00:44:20.667Z,88.45
2024-05-09T00:45:20.604Z,88.76
2024-05-09T00:46:20.619Z,89.37
2024-05-09T00:47:20.761Z,89.78
2024-05-09T00:48:21.600Z,89.03
2024-05-09T00:49:20.755Z,88.31
2024-05-09T00:50:29.409Z,88.31
2024-05-09T00:51:21.837Z,87.79
2024-05-09T00:52:20.513Z,88.35
2024-05-09T00:53:20.619Z,89.21
2024-05-09T00:54:20.501Z,90.63
2024-05-09T00:55:20.529Z,92.21
2024-05-09T00:56:20.535Z,92.48
2024-05-09T00:57:20.529Z,92.89
2024-05-09T00:58:20.640Z,93.36
2024-05-09T00:59:20.518Z,92.95
2024-05-09T01:00:27.256Z,92.23
2024-05-09T01:01:22.492Z,91.57
2024-05-09T01:02:20.477Z,90.75
2024-05-09T01:03:20.767Z,90.34
2024-05-09T01:04:20.442Z,90.09
2024-05-09T01:05:20.499Z,89.69
2024-05-09T01:06:20.361Z,89.62
2024-05-09T01:07:20.370Z,89.83
2024-05-09T01:08:20.459Z,89.93
2024-05-09T01:09:20.399Z,89.78
2024-05-09T01:10:27.633Z,89.27
2024-05-09T01:11:22.395Z,88.66
2024-05-09T01:12:20.386Z,88.41
2024-05-09T01:13:20.290Z,88.10
2024-05-09T01:14:20.410Z,87.90
2024-05-09T01:15:20.269Z,87.85
2024-05-09T01:16:21.044Z,88.00
2024-05-09T01:17:20.351Z,87.28
2024-05-09T01:18:20.454Z,87.14
2024-05-09T01:19:20.402Z,86.93
2024-05-09T01:20:27.805Z,86.73
2024-05-09T01:21:21.293Z,87.04
2024-05-09T01:22:20.202Z,86.32
2024-05-09T01:23:20.334Z,86.73
2024-05-09T01:24:20.225Z,86.11
2024-05-09T01:25:20.162Z,86.32
2024-05-09T01:26:20.163Z,86.87
2024-05-09T01:27:20.141Z,86.66
2024-05-09T01:28:20.198Z,87.49
2024-05-09T01:29:20.214Z,87.08
2024-05-09T01:30:24.382Z,87.28
2024-05-09T01:31:22.128Z,86.77
2024-05-09T01:32:20.189Z,86.77
2024-05-09T01:33:20.309Z,87.24
2024-05-09T01:34:20.171Z,87.08
2024-05-09T01:35:20.572Z,87.04
2024-05-09T01:36:20.049Z,86.57
2024-05-09T01:37:20.040Z,86.36
2024-05-09T01:38:20.152Z,87.38
2024-05-09T01:39:20.004Z,87.08
2024-05-09T01:40:25.347Z,86.46
2024-05-09T01:41:22.059Z,87.08
2024-05-09T01:42:19.983Z,86.77
2024-05-09T01:43:20.024Z,86.77
2024-05-09T01:44:20.058Z,86.15
2024-05-09T01:45:19.953Z,87.08
2024-05-09T01:46:19.954Z,86.30
2024-05-09T01:47:19.950Z,86.30
2024-05-09T01:48:20.021Z,86.05
2024-05-09T01:49:19.977Z,87.49
2024-05-09T01:50:28.967Z,87.49
2024-05-09T01:51:21.935Z,87.18
2024-05-09T01:52:19.851Z,86.25
2024-05-09T01:53:19.868Z,86.57
2024-05-09T01:54:19.843Z,86.25
2024-05-09T01:55:19.819Z,86.57
2024-05-09T01:56:19.877Z,86.71
2024-05-09T01:57:19.843Z,86.50
2024-05-09T01:58:19.794Z,87.43
2024-05-09T01:59:19.817Z,87.32
2024-05-09T02:00:30.180Z,87.32
2024-05-09T02:01:20.819Z,86.91
2024-05-09T02:02:19.912Z,87.12
2024-05-09T02:03:19.926Z,87.37
2024-05-09T02:04:19.938Z,87.63
2024-05-09T02:05:19.863Z,87.37
2024-05-09T02:06:19.735Z,87.46
2024-05-09T02:07:19.722Z,88.08
2024-05-09T02:08:19.985Z,87.77
2024-05-09T02:09:19.666Z,87.98
2024-05-09T02:10:25.975Z,88.02
2024-05-09T02:11:21.713Z,88.33
2024-05-09T02:12:19.863Z,88.43
2024-05-09T02:13:19.624Z,88.18
2024-05-09T02:14:19.728Z,88.29
2024-05-09T02:15:19.643Z,88.02
2024-05-09T02:16:19.592Z,87.98
2024-05-09T02:17:19.618Z,87.20
2024-05-09T02:18:19.717Z,87.51
2024-05-09T02:19:19.657Z,87.71
2024-05-09T02:20:29.974Z,87.40
2024-05-09T02:21:20.526Z,88.02
2024-05-09T02:22:19.535Z,87.10
2024-05-09T02:23:19.633Z,86.79
2024-05-09T02:24:19.486Z,88.23
2024-05-09T02:25:19.495Z,88.02
2024-05-09T02:26:19.553Z,86.58
2024-05-09T02:27:19.455Z,87.82
2024-05-09T02:28:19.438Z,87.71
2024-05-09T02:29:19.551Z,87.75
2024-05-09T02:30:26.401Z,88.06
2024-05-09T02:31:20.458Z,88.06
2024-05-09T02:32:19.496Z,88.57
2024-05-09T02:33:19.515Z,89.19
2024-05-09T02:34:19.638Z,88.98
2024-05-09T02:35:19.434Z,88.72
2024-05-09T02:36:19.405Z,89.09
2024-05-09T02:37:19.368Z,89.34
2024-05-09T02:38:19.398Z,89.95
2024-05-09T02:39:19.435Z,89.85
2024-05-09T02:40:25.750Z,90.16
2024-05-09T02:41:21.397Z,89.29
2024-05-09T02:42:19.330Z,90.12
2024-05-09T02:43:19.285Z,88.72
2024-05-09T02:44:19.314Z,88.68
2024-05-09T02:45:19.285Z,88.41
2024-05-09T02:46:19.289Z,88.89
2024-05-09T02:47:19.420Z,89.23
2024-05-09T02:48:19.445Z,90.00
2024-05-09T02:49:19.322Z,90.96
2024-05-09T02:50:26.740Z,91.47
2024-05-09T02:51:21.299Z,91.68
2024-05-09T02:52:19.223Z,91.99
2024-05-09T02:53:19.288Z,92.30
2024-05-09T02:54:19.185Z,91.33
2024-05-09T02:55:19.188Z,90.72
2024-05-09T02:56:19.303Z,90.72
2024-05-09T02:57:19.177Z,90.20
2024-05-09T02:58:19.145Z,90.16
2024-05-09T02:59:19.219Z,89.89
2024-05-09T03:00:26.236Z,89.85
2024-05-09T03:01:20.157Z,90.06
2024-05-09T03:02:19.235Z,90.16
2024-05-09T03:03:19.380Z,89.03
2024-05-09T03:04:19.148Z,88.92
2024-05-09T03:05:19.164Z,89.34
2024-05-09T03:06:19.065Z,89.13
2024-05-09T03:07:20.199Z,89.13
2024-05-09T03:08:20.069Z,89.13
2024-05-09T03:09:19.010Z,88.92
2024-05-09T03:10:25.383Z,88.82
2024-05-09T03:11:20.120Z,88.82
2024-05-09T03:12:19.036Z,89.03
2024-05-09T03:13:18.985Z,89.28
2024-05-09T03:14:19.004Z,89.28
2024-05-09T03:15:18.966Z,90.09
2024-05-09T03:16:18.938Z,90.00
2024-05-09T03:17:19.002Z,90.09
2024-05-09T03:18:19.113Z,89.89
2024-05-09T03:19:19.026Z,89.89
2024-05-09T03:20:23.865Z,90.20
2024-05-09T03:21:20.950Z,90.00
2024-05-09T03:22:18.906Z,89.89
2024-05-09T03:23:18.895Z,89.85
2024-05-09T03:24:18.941Z,90.09
2024-05-09T03:25:18.849Z,90.26
2024-05-09T03:26:18.944Z,89.28
2024-05-09T03:27:18.834Z,88.82
2024-05-09T03:28:18.905Z,88.92
2024-05-09T03:29:18.954Z,88.51
2024-05-09T03:30:26.113Z,88.20
2024-05-09T03:31:20.764Z,87.84
2024-05-09T03:32:18.997Z,87.84
2024-05-09T03:33:20.222Z,88.14
2024-05-09T03:34:18.866Z,88.45
2024-05-09T03:35:18.847Z,88.04
2024-05-09T03:36:18.727Z,87.94
2024-05-09T03:37:18.756Z,87.84
2024-05-09T03:38:18.774Z,88.24
2024-05-09T03:39:19.880Z,88.45
2024-05-09T03:40:23.523Z,88.14
2024-05-09T03:41:19.697Z,88.56
2024-05-09T03:42:18.653Z,88.76
2024-05-09T03:43:18.768Z,88.45
2024-05-09T03:44:18.655Z,88.56
2024-05-09T03:45:18.631Z,88.45
2024-05-09T03:46:19.611Z,88.56
2024-05-09T03:47:18.692Z,88.35
2024-05-09T03:48:18.809Z,88.35
2024-05-09T03:49:18.751Z,88.56
2024-05-09T03:50:26.060Z,88.66
2024-05-09T03:51:19.674Z,88.59
2024-05-09T03:52:18.557Z,89.42
2024-05-09T03:53:18.628Z,89.97
2024-05-09T03:54:18.524Z,90.69
2024-05-09T03:55:18.505Z,90.59
2024-05-09T03:56:18.593Z,91.31
2024-05-09T03:57:18.497Z,91.52
2024-05-09T03:58:18.485Z,91.06
2024-05-09T03:59:18.527Z,90.75
2024-05-09T04:00:26.480Z,90.75
2024-05-09T04:01:19.558Z,90.24
2024-05-09T04:02:19.049Z,90.24
2024-05-09T04:03:18.914Z,90.14
2024-05-09T04:04:18.566Z,90.03
2024-05-09T04:05:18.476Z,90.24
2024-05-09T04:06:18.401Z,90.03
2024-05-09T04:07:18.394Z,90.14
2024-05-09T04:08:18.459Z,90.03
2024-05-09T04:09:18.389Z,89.94
2024-05-09T04:10:27.391Z,88.96
2024-05-09T04:11:19.430Z,90.14
2024-05-09T04:12:18.416Z,88.86
2024-05-09T04:13:18.362Z,88.51
2024-05-09T04:14:18.344Z,88.51
2024-05-09T04:15:18.321Z,88.62
2024-05-09T04:16:18.318Z,88.82
2024-05-09T04:17:18.408Z,88.31
2024-05-09T04:18:18.354Z,88.31
2024-05-09T04:19:18.476Z,88.20
2024-05-09T04:20:28.792Z,88.00
2024-05-09T04:21:20.233Z,88.00
2024-05-09T04:22:18.250Z,88.41
2024-05-09T04:23:18.241Z,88.31
2024-05-09T04:24:18.198Z,88.82
2024-05-09T04:25:18.273Z,88.41
2024-05-09T04:26:18.202Z,88.96
2024-05-09T04:27:18.167Z,90.09
2024-05-09T04:28:18.273Z,89.79
2024-05-09T04:29:18.179Z,89.75
2024-05-09T04:30:25.809Z,89.95
2024-05-09T04:31:20.149Z,90.06
2024-05-09T04:32:18.221Z,89.34
2024-05-09T04:33:18.276Z,89.34
2024-05-09T04:34:18.181Z,89.95
2024-05-09T04:35:18.125Z,90.32
2024-05-09T04:36:18.106Z,89.40
2024-05-09T04:37:18.098Z,88.89
2024-05-09T04:38:18.083Z,90.06
2024-05-09T04:39:18.065Z,89.70
2024-05-09T04:40:24.466Z,89.85
2024-05-09T04:41:19.047Z,89.91
2024-05-09T04:42:18.460Z,90.01
2024-05-09T04:43:18.010Z,89.95
2024-05-09T04:44:18.130Z,90.12
2024-05-09T04:45:17.997Z,90.78
2024-05-09T04:46:17.964Z,90.63
2024-05-09T04:47:18.246Z,91.08
2024-05-09T04:48:18.077Z,91.04
2024-05-09T04:49:18.178Z,90.78
2024-05-09T04:50:28.829Z,90.83
2024-05-09T04:51:19.904Z,90.88
2024-05-09T04:52:17.916Z,91.49
2024-05-09T04:53:18.167Z,92.11
2024-05-09T04:54:29.876Z,92.52
2024-05-09T04:55:19.861Z,92.07
2024-05-09T04:56:17.944Z,91.04
2024-05-09T04:57:17.851Z,91.41
2024-05-09T04:58:17.865Z,90.85
2024-05-09T04:59:17.888Z,89.89
2024-05-09T05:00:25.729Z,89.93
2024-05-09T05:01:19.886Z,89.07
2024-05-09T05:02:17.851Z,88.45
2024-05-09T05:03:18.128Z,88.62
2024-05-09T05:04:17.935Z,88.24
2024-05-09T05:05:17.847Z,88.86
2024-05-09T05:06:17.802Z,89.17
2024-05-09T05:07:17.724Z,89.89
2024-05-09T05:08:18.790Z,90.14
2024-05-09T05:09:17.731Z,91.41
2024-05-09T05:10:25.137Z,91.97
2024-05-09T05:11:19.840Z,92.54
2024-05-09T05:12:17.742Z,93.05
2024-05-09T05:13:18.686Z,93.36
2024-05-09T05:14:17.726Z,93.36
2024-05-09T05:15:17.698Z,93.46
2024-05-09T05:16:18.510Z,92.70
2024-05-09T05:17:17.633Z,92.66
2024-05-09T05:18:19.875Z,92.41
2024-05-09T05:19:17.927Z,91.14
2024-05-09T05:20:27.031Z,90.83
2024-05-09T05:21:19.705Z,90.48
2024-05-09T05:22:17.563Z,89.51
2024-05-09T05:23:17.589Z,88.14
2024-05-09T05:24:17.545Z,86.22
2024-05-09T05:25:17.524Z,84.98
2024-05-09T05:26:17.579Z,81.86
2024-05-09T05:27:17.518Z,80.02
2024-05-09T05:28:17.608Z,76.21
2024-05-09T05:29:20.712Z,74.48
2024-05-09T05:30:25.050Z,71.84
2024-05-09T05:31:18.567Z,69.41
2024-05-09T05:32:17.579Z,67.09
2024-05-09T05:33:17.577Z,64.70
2024-05-09T05:34:17.449Z,62.32
2024-05-09T05:35:18.401Z,60.58
2024-05-09T05:36:17.457Z,60.32
2024-05-09T05:37:17.451Z,58.95
2024-05-09T05:38:17.580Z,57.12
2024-05-09T05:39:17.426Z,55.68
2024-05-09T05:40:25.140Z,54.96
2024-05-09T05:41:19.518Z,54.20
2024-05-09T05:42:17.380Z,53.77
2024-05-09T05:43:17.386Z,53.27
2024-05-09T05:44:17.557Z,52.24
2024-05-09T05:45:17.324Z,52.64
2024-05-09T05:46:17.295Z,52.94
2024-05-09T05:47:17.388Z,52.22
2024-05-09T05:48:18.023Z,51.62
2024-05-09T05:49:17.449Z,51.49
2024-05-09T05:50:24.716Z,51.39
2024-05-09T05:51:19.297Z,52.09
2024-05-09T05:52:17.226Z,51.79
2024-05-09T05:53:17.351Z,51.97
2024-05-09T05:54:17.255Z,51.46
2024-05-09T05:55:17.196Z,51.39
2024-05-09T05:56:17.250Z,50.37
2024-05-09T05:57:17.212Z,51.37
2024-05-09T05:58:17.177Z,50.64
2024-05-09T05:59:17.185Z,51.44
2024-05-09T06:00:26.072Z,50.62
2024-05-09T06:01:19.218Z,49.90
2024-05-09T06:02:17.451Z,49.09
2024-05-09T06:03:17.218Z,49.47
2024-05-09T06:04:17.195Z,48.87
2024-05-09T06:05:17.102Z,49.47
2024-05-09T06:06:17.077Z,49.25
2024-05-09T06:07:17.071Z,48.93
2024-05-09T06:08:17.111Z,50.49
2024-05-09T06:09:17.089Z,50.94
2024-05-09T06:10:21.535Z,52.29
2024-05-09T06:11:19.195Z,52.24
2024-05-09T06:12:17.107Z,51.22
2024-05-09T06:13:17.039Z,51.17
2024-05-09T06:14:17.095Z,51.44
2024-05-09T06:15:16.989Z,51.84
2024-05-09T06:16:16.996Z,51.52
2024-05-09T06:17:17.187Z,51.89
2024-05-09T06:18:17.245Z,52.52
2024-05-09T06:19:17.120Z,54.65
2024-05-09T06:20:23.838Z,55.58
2024-05-09T06:21:18.079Z,54.43
2024-05-09T06:22:16.935Z,52.92
2024-05-09T06:23:16.973Z,51.34
2024-05-09T06:24:16.880Z,49.29
2024-05-09T06:25:16.874Z,49.67
2024-05-09T06:26:16.907Z,48.90
2024-05-09T06:27:16.870Z,49.29
2024-05-09T06:28:16.840Z,49.05
2024-05-09T06:29:16.928Z,49.25
2024-05-09T06:30:25.778Z,50.92
2024-05-09T06:31:19.055Z,51.29
2024-05-09T06:32:16.876Z,50.20
2024-05-09T06:33:17.158Z,51.54
2024-05-09T06:34:16.935Z,52.22
2024-05-09T06:35:16.811Z,51.62
2024-05-09T06:36:16.772Z,50.27
2024-05-09T06:37:16.770Z,48.85
2024-05-09T06:38:16.788Z,49.20
2024-05-09T06:39:16.721Z,50.29
2024-05-09T06:40:21.426Z,50.09
2024-05-09T06:41:18.911Z,49.49
2024-05-09T06:42:17.428Z,51.46
2024-05-09T06:43:18.797Z,53.52
2024-05-09T06:44:16.685Z,54.25
2024-05-09T06:45:16.656Z,58.39
2024-05-09T06:46:16.647Z,63.24
2024-05-09T06:47:16.753Z,66.64
2024-05-09T06:48:16.711Z,66.74
2024-05-09T06:49:16.821Z,66.04
2024-05-09T06:50:23.682Z,65.78
2024-05-09T06:51:17.686Z,63.36
2024-05-09T06:52:16.608Z,60.68
2024-05-09T06:53:16.596Z,59.82
2024-05-09T06:54:16.580Z,60.12
2024-05-09T06:55:16.578Z,58.68
2024-05-09T06:56:16.628Z,58.78
2024-05-09T06:57:16.543Z,59.11
2024-05-09T06:58:16.534Z,59.57
2024-05-09T06:59:16.592Z,62.21
2024-05-09T07:00:26.642Z,63.06
2024-05-09T07:01:18.586Z,60.85
2024-05-09T07:02:16.577Z,59.16
2024-05-09T07:03:18.410Z,57.29
2024-05-09T07:04:16.656Z,57.26
2024-05-09T07:05:16.508Z,56.51
2024-05-09T07:06:17.469Z,54.00
2024-05-09T07:07:16.402Z,51.62
2024-05-09T07:08:16.742Z,52.32
2024-05-09T07:09:16.419Z,56.34
2024-05-09T07:10:22.116Z,54.70
2024-05-09T07:11:18.462Z,57.35
2024-05-09T07:12:16.493Z,59.44
2024-05-09T07:13:16.361Z,59.16
2024-05-09T07:14:16.462Z,57.44
2024-05-09T07:15:16.375Z,56.13
2024-05-09T07:16:16.384Z,53.57
2024-05-09T07:17:16.343Z,53.74
2024-05-09T07:18:17.989Z,52.32
2024-05-09T07:19:16.429Z,54.07
2024-05-09T07:20:23.418Z,55.45
2024-05-09T07:21:18.325Z,58.07
2024-05-09T07:22:16.259Z,58.26
2024-05-09T07:23:16.481Z,55.24
2024-05-09T07:24:16.259Z,53.30
2024-05-09T07:25:16.239Z,55.80
2024-05-09T07:26:16.315Z,56.05
2024-05-09T07:27:16.240Z,54.42
2024-05-09T07:28:16.272Z,55.15
2024-05-09T07:29:16.276Z,57.21
2024-05-09T07:30:22.992Z,56.23
2024-05-09T07:31:18.150Z,54.62
2024-05-09T07:32:16.276Z,54.19
2024-05-09T07:33:16.486Z,51.97
2024-05-09T07:34:16.240Z,55.71
2024-05-09T07:35:16.182Z,58.65
2024-05-09T07:36:16.138Z,60.98
2024-05-09T07:37:16.104Z,62.40
2024-05-09T07:38:16.261Z,62.73
2024-05-09T07:39:16.118Z,61.99
2024-05-09T07:40:24.888Z,60.93
2024-05-09T07:41:18.076Z,60.32
2024-05-09T07:42:16.084Z,59.74
2024-05-09T07:43:17.055Z,56.65
2024-05-09T07:44:16.048Z,54.42
2024-05-09T07:45:38.986Z,52.59
2024-05-09T07:47:14.355Z,51.25
2024-05-09T07:48:29.008Z,48.68
2024-05-09T07:50:56.121Z,47.14
2024-05-09T07:53:29.986Z,51.42
2024-05-09T07:53:38.159Z,53.59
2024-05-09T07:54:18.083Z,53.89
2024-05-09T07:55:16.132Z,53.92
2024-05-09T07:56:16.319Z,54.15
2024-05-09T07:57:15.958Z,54.27
2024-05-09T07:58:15.871Z,55.08
2024-05-09T07:59:15.906Z,55.71
2024-05-09T08:00:20.419Z,56.58
2024-05-09T08:01:18.002Z,55.08
2024-05-09T08:02:15.953Z,55.67
2024-05-09T08:03:15.967Z,51.39
2024-05-09T08:04:15.896Z,52.24
2024-05-09T08:05:16.035Z,51.77
2024-05-09T08:06:15.778Z,52.39
2024-05-09T08:07:15.835Z,49.00
2024-05-09T08:08:15.795Z,48.95
2024-05-09T08:09:20.807Z,46.37
2024-05-09T08:10:22.165Z,45.03
2024-05-09T08:11:17.807Z,42.88
2024-05-09T08:12:15.735Z,43.34
2024-05-09T08:13:15.798Z,42.85
2024-05-09T08:14:15.745Z,42.86
2024-05-09T08:15:15.708Z,42.17
2024-05-09T08:16:15.806Z,40.92
2024-05-09T08:17:15.696Z,40.70
2024-05-09T08:18:16.786Z,41.18
2024-05-09T08:19:15.757Z,39.97
2024-05-09T08:20:22.959Z,40.96
2024-05-09T08:21:17.656Z,40.26
2024-05-09T08:22:15.660Z,41.53
2024-05-09T08:23:15.674Z,39.64
2024-05-09T08:24:15.636Z,39.40
2024-05-09T08:25:15.863Z,37.90
2024-05-09T08:26:15.595Z,37.43
2024-05-09T08:27:15.586Z,37.01
2024-05-09T08:28:15.753Z,36.11
2024-05-09T08:29:15.550Z,36.39
2024-05-09T08:30:22.077Z,38.62
2024-05-09T08:31:17.608Z,41.17
2024-05-09T08:32:15.594Z,43.63
2024-05-09T08:33:15.804Z,45.11
2024-05-09T08:34:15.680Z,42.35
2024-05-09T08:35:15.488Z,42.60
2024-05-09T08:36:15.549Z,42.09
2024-05-09T08:37:21.508Z,39.75
2024-05-09T08:38:17.490Z,41.24
2024-05-09T08:39:15.455Z,40.62
2024-05-09T08:40:23.699Z,39.52
2024-05-09T08:41:17.486Z,38.23
2024-05-09T08:42:15.443Z,38.28
2024-05-09T08:43:15.572Z,41.93
2024-05-09T08:44:16.416Z,40.70
2024-05-09T08:45:15.417Z,40.20
2024-05-09T08:46:15.412Z,38.96
2024-05-09T08:47:15.449Z,39.93
2024-05-09T08:48:16.356Z,38.49
2024-05-09T08:49:15.758Z,37.94
2024-05-09T08:50:24.338Z,38.29
2024-05-09T08:51:17.337Z,35.02
2024-05-09T08:52:15.434Z,37.98
2024-05-09T08:53:15.720Z,39.53
2024-05-09T08:54:15.354Z,41.50
2024-05-09T08:55:15.475Z,43.25
2024-05-09T08:56:15.340Z,44.39
2024-05-09T08:57:15.334Z,46.47
2024-05-09T08:58:15.913Z,43.69
2024-05-09T08:59:15.363Z,43.23
2024-05-09T09:00:21.682Z,46.17
2024-05-09T09:01:16.323Z,46.56
2024-05-09T09:02:15.464Z,43.98
2024-05-09T09:03:16.336Z,42.91
2024-05-09T09:04:15.878Z,40.25
2024-05-09T09:05:15.285Z,38.74
2024-05-09T09:06:15.290Z,38.88
2024-05-09T09:07:15.215Z,39.43
2024-05-09T09:08:15.190Z,38.66
2024-05-09T09:09:15.179Z,41.02
2024-05-09T09:10:21.232Z,39.81
2024-05-09T09:11:17.208Z,39.59
2024-05-09T09:12:15.134Z,38.40
2024-05-09T09:13:15.240Z,37.46
2024-05-09T09:14:15.151Z,33.75
2024-05-09T09:15:15.137Z,36.60
2024-05-09T09:16:15.132Z,40.22
2024-05-09T09:17:15.167Z,40.89
2024-05-09T09:18:15.223Z,41.33
2024-05-09T09:19:15.519Z,41.77
2024-05-09T09:20:22.999Z,43.43
2024-05-09T09:21:16.052Z,46.31
2024-05-09T09:22:15.108Z,45.00
2024-05-09T09:23:15.013Z,42.53
2024-05-09T09:24:15.011Z,42.99
2024-05-09T09:25:15.056Z,40.25
2024-05-09T09:26:15.002Z,37.75
2024-05-09T09:27:14.980Z,36.63
2024-05-09T09:28:15.076Z,39.62
2024-05-09T09:29:14.963Z,43.38
2024-05-09T09:30:27.794Z,42.72
2024-05-09T09:31:16.961Z,41.95
2024-05-09T09:32:15.025Z,40.70
2024-05-09T09:33:14.989Z,40.07
2024-05-09T09:34:15.075Z,36.86
2024-05-09T09:35:14.890Z,38.46
2024-05-09T09:36:14.900Z,41.31
2024-05-09T09:37:14.969Z,37.43
2024-05-09T09:38:14.895Z,37.92
2024-05-09T09:39:14.859Z,39.70
2024-05-09T09:40:15.685Z,41.02
2024-05-09T09:41:15.953Z,44.62
2024-05-09T09:42:14.911Z,40.19
2024-05-09T09:43:15.196Z,39.09
2024-05-09T09:44:14.816Z,42.65
2024-05-09T09:45:14.808Z,43.67
2024-05-09T09:46:14.962Z,44.37
2024-05-09T09:47:14.827Z,45.62
2024-05-09T09:48:14.938Z,45.10
2024-05-09T09:49:14.951Z,46.34
2024-05-09T09:50:17.208Z,44.24
2024-05-09T09:51:15.769Z,40.76
2024-05-09T09:52:14.845Z,43.20
2024-05-09T09:53:14.753Z,39.51
2024-05-09T09:54:14.712Z,39.72
2024-05-09T09:55:14.855Z,42.51
2024-05-09T09:56:14.686Z,45.86
2024-05-09T09:57:14.680Z,45.55
2024-05-09T09:58:14.884Z,42.63
2024-05-09T09:59:14.694Z,43.16
2024-05-09T10:00:21.079Z,40.52
2024-05-09T10:01:16.786Z,39.65
2024-05-09T10:02:15.746Z,40.56
2024-05-09T10:03:15.671Z,43.70
2024-05-09T10:04:14.742Z,39.81
2024-05-09T10:05:14.717Z,41.00
2024-05-09T10:06:14.607Z,43.30
2024-05-09T10:07:14.712Z,43.42
2024-05-09T10:08:14.572Z,39.36
2024-05-09T10:09:14.599Z,42.71
2024-05-09T10:10:16.589Z,40.76
2024-05-09T10:11:15.568Z,40.84
2024-05-09T10:12:14.548Z,40.07
2024-05-09T10:13:14.681Z,40.74
2024-05-09T10:14:14.525Z,39.24
2024-05-09T10:15:14.534Z,40.25
2024-05-09T10:16:14.549Z,41.02
2024-05-09T10:17:14.505Z,38.45
2024-05-09T10:18:15.884Z,40.11
2024-05-09T10:19:14.542Z,37.82
2024-05-09T10:20:21.464Z,39.48
2024-05-09T10:21:16.454Z,37.68
2024-05-09T10:22:14.565Z,37.60
2024-05-09T10:23:14.431Z,38.10
2024-05-09T10:24:14.418Z,36.50
2024-05-09T10:25:14.481Z,35.22
2024-05-09T10:26:14.425Z,36.91
2024-05-09T10:27:14.397Z,35.57
2024-05-09T10:28:14.553Z,36.75
2024-05-09T10:29:14.373Z,37.34
2024-05-09T10:30:21.280Z,37.48
2024-05-09T10:31:16.624Z,38.07
2024-05-09T10:32:14.338Z,41.67
2024-05-09T10:33:14.408Z,41.12
2024-05-09T10:34:14.458Z,41.85
2024-05-09T10:35:14.339Z,43.18
2024-05-09T10:36:14.330Z,42.63
2024-05-09T10:37:14.360Z,41.00
2024-05-09T10:38:14.300Z,41.36
2024-05-09T10:39:14.301Z,41.10
2024-05-09T10:40:22.837Z,40.56
2024-05-09T10:41:16.255Z,37.60
2024-05-09T10:42:14.283Z,41.74
2024-05-09T10:43:14.361Z,43.39
2024-05-09T10:44:14.242Z,45.79
2024-05-09T10:45:14.212Z,41.02
2024-05-09T10:46:14.324Z,42.49
2024-05-09T10:47:14.209Z,43.60
2024-05-09T10:48:14.280Z,43.32
2024-05-09T10:49:14.313Z,41.08
2024-05-09T10:50:22.259Z,41.25
2024-05-09T10:51:16.165Z,42.13
2024-05-09T10:52:14.230Z,43.35
2024-05-09T10:53:14.134Z,44.29
2024-05-09T10:54:14.124Z,45.54
2024-05-09T10:55:14.187Z,45.11
2024-05-09T10:56:14.219Z,43.60
2024-05-09T10:57:14.140Z,44.87
2024-05-09T10:58:14.180Z,46.61
2024-05-09T10:59:14.098Z,46.65
2024-05-09T11:00:19.486Z,47.48
2024-05-09T11:01:16.235Z,47.39
2024-05-09T11:02:14.135Z,43.35
2024-05-09T11:03:14.103Z,40.33
2024-05-09T11:04:14.365Z,40.42
2024-05-09T11:05:14.235Z,40.26
2024-05-09T11:06:13.992Z,41.39
2024-05-09T11:07:15.034Z,43.52
2024-05-09T11:08:13.994Z,44.33
2024-05-09T11:09:13.977Z,42.98
2024-05-09T11:10:17.815Z,39.87
2024-05-09T11:11:15.011Z,43.12
2024-05-09T11:12:13.962Z,42.08
2024-05-09T11:13:14.073Z,40.61
2024-05-09T11:14:13.937Z,40.50
2024-05-09T11:15:14.050Z,39.42
2024-05-09T11:16:14.030Z,37.92
2024-05-09T11:17:13.922Z,38.89
2024-05-09T11:18:13.990Z,40.58
2024-05-09T11:19:14.100Z,38.51
2024-05-09T11:20:20.046Z,38.53
2024-05-09T11:21:14.863Z,41.38
2024-05-09T11:22:13.990Z,38.69
2024-05-09T11:23:13.869Z,37.45
2024-05-09T11:24:13.841Z,43.85
2024-05-09T11:25:13.880Z,42.60
2024-05-09T11:26:13.816Z,43.54
2024-05-09T11:27:13.800Z,44.10
2024-05-09T11:28:13.865Z,44.14
2024-05-09T11:29:17.111Z,45.95
2024-05-09T11:30:20.871Z,43.41
2024-05-09T11:31:15.773Z,44.82
2024-05-09T11:32:13.828Z,43.65
2024-05-09T11:33:13.842Z,43.95
2024-05-09T11:34:13.737Z,44.07
2024-05-09T11:35:13.767Z,47.90
2024-05-09T11:36:13.706Z,44.91
2024-05-09T11:37:13.912Z,45.10
2024-05-09T11:38:13.736Z,44.53
2024-05-09T11:39:13.688Z,44.91
2024-05-09T11:40:20.987Z,44.21
2024-05-09T11:41:15.691Z,44.05
2024-05-09T11:42:13.651Z,45.26
2024-05-09T11:43:13.727Z,47.04
2024-05-09T11:44:13.632Z,44.89
2024-05-09T11:45:13.629Z,44.27
2024-05-09T11:46:13.871Z,44.23
2024-05-09T11:47:13.666Z,46.86
2024-05-09T11:48:13.632Z,48.96
2024-05-09T11:49:13.786Z,39.69
2024-05-09T11:50:22.383Z,41.22
2024-05-09T11:51:15.598Z,41.75
2024-05-09T11:52:13.630Z,40.18
2024-05-09T11:53:13.539Z,45.26
2024-05-09T11:54:13.515Z,47.20
2024-05-09T11:55:13.575Z,47.17
2024-05-09T11:56:13.487Z,42.23
2024-05-09T11:57:13.535Z,43.61
2024-05-09T11:58:13.704Z,46.17
2024-05-09T11:59:13.485Z,46.24
2024-05-09T12:00:20.731Z,47.31
2024-05-09T12:01:15.514Z,48.31
2024-05-09T12:02:13.687Z,47.73
2024-05-09T12:03:13.556Z,48.28
2024-05-09T12:04:13.633Z,47.49
2024-05-09T12:05:13.585Z,47.31
2024-05-09T12:06:13.424Z,48.07
2024-05-09T12:07:13.609Z,48.94
2024-05-09T12:08:13.374Z,47.50
2024-05-09T12:09:13.378Z,47.73
2024-05-09T12:10:16.857Z,48.99
2024-05-09T12:11:15.416Z,48.79
2024-05-09T12:12:13.346Z,46.45
2024-05-09T12:13:13.357Z,49.55
2024-05-09T12:14:13.309Z,43.63
2024-05-09T12:15:13.295Z,43.41
2024-05-09T12:16:14.136Z,43.59
2024-05-09T12:17:13.363Z,42.47
2024-05-09T12:18:13.318Z,43.15
2024-05-09T12:19:13.443Z,40.94
2024-05-09T12:20:21.115Z,40.84
2024-05-09T12:21:15.245Z,39.69
2024-05-09T12:22:13.372Z,42.27
2024-05-09T12:23:13.225Z,44.32
2024-05-09T12:24:15.236Z,40.20
2024-05-09T12:25:14.381Z,43.36
2024-05-09T12:26:13.184Z,40.02
2024-05-09T12:27:13.229Z,43.57
2024-05-09T12:28:13.255Z,48.32
2024-05-09T12:29:13.188Z,49.00
2024-05-09T12:30:20.717Z,47.08
2024-05-09T12:31:15.156Z,47.71
2024-05-09T12:32:13.194Z,46.31
2024-05-09T12:33:13.686Z,47.60
2024-05-09T12:34:13.268Z,48.13
2024-05-09T12:35:13.098Z,49.25
2024-05-09T12:36:13.073Z,47.85
2024-05-09T12:37:13.132Z,48.85
2024-05-09T12:38:13.073Z,48.94
2024-05-09T12:39:13.059Z,49.44
2024-05-09T12:40:22.390Z,48.55
2024-05-09T12:41:15.040Z,49.15
2024-05-09T12:42:22.329Z,49.65
2024-05-09T12:43:14.129Z,48.25
2024-05-09T12:44:13.032Z,49.15
2024-05-09T12:45:12.989Z,47.67
2024-05-09T12:46:12.993Z,46.45
2024-05-09T12:47:12.980Z,46.07
2024-05-09T12:48:13.419Z,44.13
2024-05-09T12:49:15.033Z,47.96
2024-05-09T12:50:21.904Z,49.09
2024-05-09T12:51:14.917Z,44.27
2024-05-09T12:52:13.069Z,45.14
2024-05-09T12:53:12.897Z,44.46
2024-05-09T12:54:12.893Z,48.92
2024-05-09T12:55:13.118Z,47.35